sensor_id;sensor_type;location;lat;lon;timestamp;temperature;humidity
21419;DHT22;10870;51.384;10.316;2022-08-01T00:00:01;18.20;99.90
21419;DHT22;10870;51.384;10.316;2022-08-01T00:02:31;18.20;99.90
21419;DHT22;10870;51.384;10.316;2022-08-01T00:04:37;18.30;99.90
21419;DHT22;10870;51.384;10.316;2022-08-01T00:09:03;18.50;99.90
21419;DHT22;10870;51.384;10.316;2022-08-01T00:11:09;18.20;99.90
21419;DHT22;10870;51.384;10.316;2022-08-01T00:18:42;18.10;99.90
21419;DHT22;10870;51.384;10.316;2022-08-01T00:21:43;18.30;99.90
21419;DHT22;10870;51.384;10.316;2022-08-01T00:24:23;18.30;99.90
21419;DHT22;10870;51.384;10.316;2022-08-01T00:26:51;18.40;99.90
21419;DHT22;10870;51.384;10.316;2022-08-01T00:29:15;18.20;99.90
21419;DHT22;10870;51.384;10.316;2022-08-01T00:31:21;18.50;99.90
21419;DHT22;10870;51.384;10.316;2022-08-01T00:33:31;18.20;99.90
21419;DHT22;10870;51.384;10.316;2022-08-01T00:35:41;18.40;99.90
21419;DHT22;10870;51.384;10.316;2022-08-01T00:37:47;18.40;99.90
21419;DHT22;10870;51.384;10.316;2022-08-01T00:42:23;18.20;99.90
21419;DHT22;10870;51.384;10.316;2022-08-01T00:44:49;18.50;99.90
21419;DHT22;10870;51.384;10.316;2022-08-01T00:46:53;18.30;99.90
21419;DHT22;10870;51.384;10.316;2022-08-01T00:49:07;18.30;99.90
21419;DHT22;10870;51.384;10.316;2022-08-01T00:51:18;18.50;99.90
21419;DHT22;10870;51.384;10.316;2022-08-01T00:53:44;18.20;99.90
21419;DHT22;10870;51.384;10.316;2022-08-01T00:57:58;18.20;99.90
21419;DHT22;10870;51.384;10.316;2022-08-01T01:00:09;18.30;99.90
21419;DHT22;10870;51.384;10.316;2022-08-01T01:02:25;18.20;99.90
21419;DHT22;10870;51.384;10.316;2022-08-01T01:07:24;18.30;99.90
21419;DHT22;10870;51.384;10.316;2022-08-01T01:15:00;18.20;99.90
21419;DHT22;10870;51.384;10.316;2022-08-01T01:17:15;18.20;99.90
21419;DHT22;10870;51.384;10.316;2022-08-01T01:19:23;18.20;99.90
21419;DHT22;10870;51.384;10.316;2022-08-01T01:21:33;18.20;99.90
21419;DHT22;10870;51.384;10.316;2022-08-01T01:31:09;18.40;99.90
21419;DHT22;10870;51.384;10.316;2022-08-01T01:33:23;18.20;99.90
21419;DHT22;10870;51.384;10.316;2022-08-01T01:35:41;18.20;99.90
21419;DHT22;10870;51.384;10.316;2022-08-01T01:38:09;18.10;99.90
21419;DHT22;10870;51.384;10.316;2022-08-01T01:40:24;18.30;99.90
21419;DHT22;10870;51.384;10.316;2022-08-01T01:42:33;17.80;99.90
21419;DHT22;10870;51.384;10.316;2022-08-01T01:44:55;18.20;99.90
21419;DHT22;10870;51.384;10.316;2022-08-01T01:47:12;18.00;99.90
21419;DHT22;10870;51.384;10.316;2022-08-01T01:49:23;17.80;99.90
21419;DHT22;10870;51.384;10.316;2022-08-01T01:51:56;18.30;99.90
21419;DHT22;10870;51.384;10.316;2022-08-01T01:57:00;18.20;99.90
21419;DHT22;10870;51.384;10.316;2022-08-01T01:59:24;18.10;99.90
21419;DHT22;10870;51.384;10.316;2022-08-01T02:01:36;18.20;99.90
21419;DHT22;10870;51.384;10.316;2022-08-01T02:03:39;18.10;99.90
21419;DHT22;10870;51.384;10.316;2022-08-01T02:05:53;18.00;99.90
21419;DHT22;10870;51.384;10.316;2022-08-01T02:08:10;18.10;99.90
21419;DHT22;10870;51.384;10.316;2022-08-01T02:10:35;18.20;99.90
21419;DHT22;10870;51.384;10.316;2022-08-01T02:13:11;18.10;99.90
21419;DHT22;10870;51.384;10.316;2022-08-01T02:15:44;18.40;99.90
21419;DHT22;10870;51.384;10.316;2022-08-01T02:20:52;18.30;99.90
21419;DHT22;10870;51.384;10.316;2022-08-01T02:23:33;18.20;99.90
21419;DHT22;10870;51.384;10.316;2022-08-01T02:25:48;18.20;99.90
21419;DHT22;10870;51.384;10.316;2022-08-01T02:30:51;18.40;99.90
21419;DHT22;10870;51.384;10.316;2022-08-01T02:33:15;18.30;99.90
21419;DHT22;10870;51.384;10.316;2022-08-01T02:35:28;18.20;99.90
21419;DHT22;10870;51.384;10.316;2022-08-01T02:37:44;17.80;99.90
21419;DHT22;10870;51.384;10.316;2022-08-01T02:40:07;18.00;99.90
21419;DHT22;10870;51.384;10.316;2022-08-01T02:42:26;18.10;99.90
21419;DHT22;10870;51.384;10.316;2022-08-01T02:44:51;18.10;99.90
21419;DHT22;10870;51.384;10.316;2022-08-01T02:47:16;18.10;99.90
21419;DHT22;10870;51.384;10.316;2022-08-01T02:49:29;18.10;99.90
21419;DHT22;10870;51.384;10.316;2022-08-01T02:51:42;18.20;99.90
21419;DHT22;10870;51.384;10.316;2022-08-01T02:54:36;18.00;99.90
21419;DHT22;10870;51.384;10.316;2022-08-01T02:57:09;18.30;99.90
21419;DHT22;10870;51.384;10.316;2022-08-01T02:59:39;18.30;99.90
21419;DHT22;10870;51.384;10.316;2022-08-01T03:01:55;18.20;99.90
21419;DHT22;10870;51.384;10.316;2022-08-01T03:04:14;18.20;99.90
21419;DHT22;10870;51.384;10.316;2022-08-01T03:06:37;18.20;99.90
21419;DHT22;10870;51.384;10.316;2022-08-01T03:08:42;18.20;99.90
21419;DHT22;10870;51.384;10.316;2022-08-01T03:11:03;18.10;99.90
21419;DHT22;10870;51.384;10.316;2022-08-01T03:13:23;18.40;99.90
21419;DHT22;10870;51.384;10.316;2022-08-01T03:15:36;17.80;99.90
21419;DHT22;10870;51.384;10.316;2022-08-01T03:18:03;17.90;99.90
21419;DHT22;10870;51.384;10.316;2022-08-01T03:20:37;17.90;99.90
21419;DHT22;10870;51.384;10.316;2022-08-01T03:25:15;18.30;99.90
21419;DHT22;10870;51.384;10.316;2022-08-01T03:27:23;18.00;99.90
21419;DHT22;10870;51.384;10.316;2022-08-01T03:29:55;18.10;99.90
21419;DHT22;10870;51.384;10.316;2022-08-01T03:32:20;18.30;99.90
21419;DHT22;10870;51.384;10.316;2022-08-01T03:34:53;18.10;99.90
21419;DHT22;10870;51.384;10.316;2022-08-01T03:37:38;18.10;99.90
21419;DHT22;10870;51.384;10.316;2022-08-01T03:39:55;18.10;99.90
21419;DHT22;10870;51.384;10.316;2022-08-01T03:45:09;18.00;99.90
21419;DHT22;10870;51.384;10.316;2022-08-01T03:47:29;18.10;99.90
21419;DHT22;10870;51.384;10.316;2022-08-01T03:53:00;17.90;99.90
21419;DHT22;10870;51.384;10.316;2022-08-01T03:55:30;18.30;99.90
21419;DHT22;10870;51.384;10.316;2022-08-01T04:00:27;18.20;99.90
21419;DHT22;10870;51.384;10.316;2022-08-01T04:02:46;18.30;99.90
21419;DHT22;10870;51.384;10.316;2022-08-01T04:05:19;18.10;99.90
21419;DHT22;10870;51.384;10.316;2022-08-01T04:07:35;17.60;99.90
21419;DHT22;10870;51.384;10.316;2022-08-01T04:09:40;18.00;99.90
21419;DHT22;10870;51.384;10.316;2022-08-01T04:14:55;18.00;99.90
21419;DHT22;10870;51.384;10.316;2022-08-01T04:19:47;17.80;99.90
21419;DHT22;10870;51.384;10.316;2022-08-01T04:21:55;17.80;99.90
21419;DHT22;10870;51.384;10.316;2022-08-01T04:24:25;17.70;99.90
21419;DHT22;10870;51.384;10.316;2022-08-01T04:26:42;17.80;99.90
21419;DHT22;10870;51.384;10.316;2022-08-01T04:29:29;17.50;99.90
21419;DHT22;10870;51.384;10.316;2022-08-01T04:31:53;17.80;99.90
21419;DHT22;10870;51.384;10.316;2022-08-01T04:34:07;17.60;99.90
21419;DHT22;10870;51.384;10.316;2022-08-01T04:36:21;17.60;99.90
21419;DHT22;10870;51.384;10.316;2022-08-01T04:39:11;17.80;99.90
21419;DHT22;10870;51.384;10.316;2022-08-01T04:41:25;17.60;99.90
21419;DHT22;10870;51.384;10.316;2022-08-01T04:43:50;17.60;99.90
21419;DHT22;10870;51.384;10.316;2022-08-01T04:46:07;17.60;99.90
21419;DHT22;10870;51.384;10.316;2022-08-01T04:50:31;17.60;99.90
21419;DHT22;10870;51.384;10.316;2022-08-01T04:52:43;17.70;99.90
21419;DHT22;10870;51.384;10.316;2022-08-01T04:54:49;17.60;99.90
21419;DHT22;10870;51.384;10.316;2022-08-01T04:57:38;17.60;99.90
21419;DHT22;10870;51.384;10.316;2022-08-01T05:04:45;17.70;99.90
21419;DHT22;10870;51.384;10.316;2022-08-01T05:06:50;17.70;99.90
21419;DHT22;10870;51.384;10.316;2022-08-01T05:11:13;17.80;99.90
21419;DHT22;10870;51.384;10.316;2022-08-01T05:13:24;17.80;99.90
21419;DHT22;10870;51.384;10.316;2022-08-01T05:15:41;18.20;99.90
21419;DHT22;10870;51.384;10.316;2022-08-01T05:17:56;17.90;99.90
21419;DHT22;10870;51.384;10.316;2022-08-01T05:20:26;17.90;99.90
21419;DHT22;10870;51.384;10.316;2022-08-01T05:22:41;17.80;99.90
21419;DHT22;10870;51.384;10.316;2022-08-01T05:24:58;18.00;99.90
21419;DHT22;10870;51.384;10.316;2022-08-01T05:27:05;17.80;99.90
21419;DHT22;10870;51.384;10.316;2022-08-01T05:29:08;17.80;99.90
21419;DHT22;10870;51.384;10.316;2022-08-01T05:31:09;17.80;99.90
21419;DHT22;10870;51.384;10.316;2022-08-01T05:33:16;17.90;99.90
21419;DHT22;10870;51.384;10.316;2022-08-01T05:35:19;17.80;99.90
21419;DHT22;10870;51.384;10.316;2022-08-01T05:37:26;17.70;99.90
21419;DHT22;10870;51.384;10.316;2022-08-01T05:39:30;17.90;99.90
21419;DHT22;10870;51.384;10.316;2022-08-01T05:44:10;18.00;99.90
21419;DHT22;10870;51.384;10.316;2022-08-01T05:46:29;18.00;99.90
21419;DHT22;10870;51.384;10.316;2022-08-01T05:48:43;17.80;99.90
21419;DHT22;10870;51.384;10.316;2022-08-01T05:50:49;17.90;99.90
21419;DHT22;10870;51.384;10.316;2022-08-01T05:53:04;17.90;99.90
21419;DHT22;10870;51.384;10.316;2022-08-01T05:55:16;17.90;99.90
21419;DHT22;10870;51.384;10.316;2022-08-01T05:57:18;18.20;99.90
21419;DHT22;10870;51.384;10.316;2022-08-01T05:59:26;17.90;99.90
21419;DHT22;10870;51.384;10.316;2022-08-01T06:02:00;18.10;99.90
21419;DHT22;10870;51.384;10.316;2022-08-01T06:04:15;18.20;99.90
21419;DHT22;10870;51.384;10.316;2022-08-01T06:06:18;18.00;99.90
21419;DHT22;10870;51.384;10.316;2022-08-01T06:08:37;18.10;99.90
21419;DHT22;10870;51.384;10.316;2022-08-01T06:10:47;18.10;99.90
21419;DHT22;10870;51.384;10.316;2022-08-01T06:12:57;18.10;99.90
21419;DHT22;10870;51.384;10.316;2022-08-01T06:15:13;18.10;99.90
21419;DHT22;10870;51.384;10.316;2022-08-01T06:17:28;18.20;99.90
21419;DHT22;10870;51.384;10.316;2022-08-01T06:19:44;18.20;99.90
21419;DHT22;10870;51.384;10.316;2022-08-01T06:21:53;18.10;99.90
21419;DHT22;10870;51.384;10.316;2022-08-01T06:24:01;18.20;99.90
21419;DHT22;10870;51.384;10.316;2022-08-01T06:26:05;18.20;99.90
21419;DHT22;10870;51.384;10.316;2022-08-01T06:28:11;18.20;99.90
21419;DHT22;10870;51.384;10.316;2022-08-01T06:30:15;18.20;99.90
21419;DHT22;10870;51.384;10.316;2022-08-01T06:32:34;18.40;99.90
21419;DHT22;10870;51.384;10.316;2022-08-01T06:35:01;18.50;99.90
21419;DHT22;10870;51.384;10.316;2022-08-01T06:37:15;18.20;99.90
21419;DHT22;10870;51.384;10.316;2022-08-01T06:39:47;18.50;99.90
21419;DHT22;10870;51.384;10.316;2022-08-01T06:41:56;18.30;99.90
21419;DHT22;10870;51.384;10.316;2022-08-01T06:46:16;18.40;99.90
21419;DHT22;10870;51.384;10.316;2022-08-01T06:48:19;18.60;99.90
21419;DHT22;10870;51.384;10.316;2022-08-01T06:50:32;18.60;99.90
21419;DHT22;10870;51.384;10.316;2022-08-01T06:52:44;18.60;99.90
21419;DHT22;10870;51.384;10.316;2022-08-01T06:54:48;18.70;99.90
21419;DHT22;10870;51.384;10.316;2022-08-01T06:57:29;18.70;99.90
21419;DHT22;10870;51.384;10.316;2022-08-01T06:59:42;18.60;99.90
21419;DHT22;10870;51.384;10.316;2022-08-01T07:01:50;18.60;99.90
21419;DHT22;10870;51.384;10.316;2022-08-01T07:06:16;18.60;99.90
21419;DHT22;10870;51.384;10.316;2022-08-01T07:08:20;18.60;99.90
21419;DHT22;10870;51.384;10.316;2022-08-01T07:10:32;18.60;99.90
21419;DHT22;10870;51.384;10.316;2022-08-01T07:12:38;18.90;99.90
21419;DHT22;10870;51.384;10.316;2022-08-01T07:14:46;18.80;99.90
21419;DHT22;10870;51.384;10.316;2022-08-01T07:16:51;18.80;99.90
21419;DHT22;10870;51.384;10.316;2022-08-01T07:18:52;18.80;99.90
21419;DHT22;10870;51.384;10.316;2022-08-01T07:20:54;19.00;99.90
21419;DHT22;10870;51.384;10.316;2022-08-01T07:22:58;19.00;99.90
21419;DHT22;10870;51.384;10.316;2022-08-01T07:24:59;18.80;99.90
21419;DHT22;10870;51.384;10.316;2022-08-01T07:27:02;18.90;99.90
21419;DHT22;10870;51.384;10.316;2022-08-01T07:29:07;19.00;99.90
21419;DHT22;10870;51.384;10.316;2022-08-01T07:31:17;19.00;99.90
21419;DHT22;10870;51.384;10.316;2022-08-01T07:33:27;18.90;99.90
21419;DHT22;10870;51.384;10.316;2022-08-01T07:35:49;19.00;99.90
21419;DHT22;10870;51.384;10.316;2022-08-01T07:38:02;18.80;99.90
21419;DHT22;10870;51.384;10.316;2022-08-01T07:40:13;19.00;99.90
21419;DHT22;10870;51.384;10.316;2022-08-01T07:42:14;19.30;99.90
21419;DHT22;10870;51.384;10.316;2022-08-01T07:44:17;19.00;99.90
21419;DHT22;10870;51.384;10.316;2022-08-01T07:46:18;19.30;99.90
21419;DHT22;10870;51.384;10.316;2022-08-01T07:48:19;19.20;99.90
21419;DHT22;10870;51.384;10.316;2022-08-01T07:50:27;19.10;99.90
21419;DHT22;10870;51.384;10.316;2022-08-01T07:52:30;18.90;99.90
21419;DHT22;10870;51.384;10.316;2022-08-01T07:54:35;19.10;99.90
21419;DHT22;10870;51.384;10.316;2022-08-01T07:56:43;19.10;99.90
21419;DHT22;10870;51.384;10.316;2022-08-01T08:00:51;19.00;99.90
21419;DHT22;10870;51.384;10.316;2022-08-01T08:02:52;19.00;99.90
21419;DHT22;10870;51.384;10.316;2022-08-01T08:04:55;19.10;99.90
21419;DHT22;10870;51.384;10.316;2022-08-01T08:07:02;19.10;99.90
21419;DHT22;10870;51.384;10.316;2022-08-01T08:09:03;19.20;99.90
21419;DHT22;10870;51.384;10.316;2022-08-01T08:13:05;19.30;99.90
21419;DHT22;10870;51.384;10.316;2022-08-01T08:15:06;19.30;99.90
21419;DHT22;10870;51.384;10.316;2022-08-01T08:17:09;19.40;99.90
21419;DHT22;10870;51.384;10.316;2022-08-01T08:19:13;19.50;99.90
21419;DHT22;10870;51.384;10.316;2022-08-01T08:21:14;19.40;99.90
21419;DHT22;10870;51.384;10.316;2022-08-01T08:23:15;19.40;99.90
21419;DHT22;10870;51.384;10.316;2022-08-01T08:25:40;19.50;99.90
21419;DHT22;10870;51.384;10.316;2022-08-01T08:27:47;19.50;99.90
21419;DHT22;10870;51.384;10.316;2022-08-01T08:31:55;19.50;99.90
21419;DHT22;10870;51.384;10.316;2022-08-01T08:33:56;19.80;99.90
21419;DHT22;10870;51.384;10.316;2022-08-01T08:36:00;19.80;99.90
21419;DHT22;10870;51.384;10.316;2022-08-01T08:38:01;20.00;99.90
21419;DHT22;10870;51.384;10.316;2022-08-01T08:40:05;20.00;99.90
21419;DHT22;10870;51.384;10.316;2022-08-01T08:42:07;19.90;99.90
21419;DHT22;10870;51.384;10.316;2022-08-01T08:44:08;19.90;99.90
21419;DHT22;10870;51.384;10.316;2022-08-01T08:46:09;20.00;99.90
21419;DHT22;10870;51.384;10.316;2022-08-01T08:48:12;19.90;99.90
21419;DHT22;10870;51.384;10.316;2022-08-01T08:50:13;19.70;99.90
21419;DHT22;10870;51.384;10.316;2022-08-01T08:52:15;19.60;99.90
21419;DHT22;10870;51.384;10.316;2022-08-01T08:54:16;19.60;99.90
21419;DHT22;10870;51.384;10.316;2022-08-01T08:56:18;19.60;99.90
21419;DHT22;10870;51.384;10.316;2022-08-01T08:58:22;19.70;99.90
21419;DHT22;10870;51.384;10.316;2022-08-01T09:00:25;19.80;99.90
21419;DHT22;10870;51.384;10.316;2022-08-01T09:02:26;19.70;99.90
21419;DHT22;10870;51.384;10.316;2022-08-01T09:08:39;20.00;99.90
21419;DHT22;10870;51.384;10.316;2022-08-01T09:10:44;20.20;99.90
21419;DHT22;10870;51.384;10.316;2022-08-01T09:13:04;20.20;99.90
21419;DHT22;10870;51.384;10.316;2022-08-01T09:15:06;20.40;99.90
21419;DHT22;10870;51.384;10.316;2022-08-01T09:17:10;20.50;99.90
21419;DHT22;10870;51.384;10.316;2022-08-01T09:19:16;20.90;99.90
21419;DHT22;10870;51.384;10.316;2022-08-01T09:21:18;20.70;99.90
21419;DHT22;10870;51.384;10.316;2022-08-01T09:23:53;20.80;99.90
21419;DHT22;10870;51.384;10.316;2022-08-01T09:25:50;20.90;99.90
21419;DHT22;10870;51.384;10.316;2022-08-01T09:28:01;20.50;99.90
21419;DHT22;10870;51.384;10.316;2022-08-01T09:30:21;20.60;99.90
21419;DHT22;10870;51.384;10.316;2022-08-01T09:32:31;20.60;99.90
21419;DHT22;10870;51.384;10.316;2022-08-01T09:34:33;20.50;99.90
21419;DHT22;10870;51.384;10.316;2022-08-01T09:37:10;20.60;99.90
21419;DHT22;10870;51.384;10.316;2022-08-01T09:39:14;20.70;99.90
21419;DHT22;10870;51.384;10.316;2022-08-01T09:44:00;20.80;99.90
21419;DHT22;10870;51.384;10.316;2022-08-01T09:46:04;20.40;99.90
21419;DHT22;10870;51.384;10.316;2022-08-01T09:48:16;20.90;99.90
21419;DHT22;10870;51.384;10.316;2022-08-01T09:50:22;20.80;99.90
21419;DHT22;10870;51.384;10.316;2022-08-01T09:52:24;20.70;99.90
21419;DHT22;10870;51.384;10.316;2022-08-01T09:54:30;20.60;99.90
21419;DHT22;10870;51.384;10.316;2022-08-01T09:56:38;20.60;99.90
21419;DHT22;10870;51.384;10.316;2022-08-01T09:58:49;20.50;99.90
21419;DHT22;10870;51.384;10.316;2022-08-01T10:01:00;20.60;99.90
21419;DHT22;10870;51.384;10.316;2022-08-01T10:05:51;20.70;99.90
21419;DHT22;10870;51.384;10.316;2022-08-01T10:08:16;20.60;99.90
21419;DHT22;10870;51.384;10.316;2022-08-01T10:10:29;21.10;99.90
21419;DHT22;10870;51.384;10.316;2022-08-01T10:12:35;20.70;99.90
21419;DHT22;10870;51.384;10.316;2022-08-01T10:14:48;20.80;99.90
21419;DHT22;10870;51.384;10.316;2022-08-01T10:17:02;20.90;99.90
21419;DHT22;10870;51.384;10.316;2022-08-01T10:19:15;20.90;99.90
21419;DHT22;10870;51.384;10.316;2022-08-01T11:52:37;22.80;99.90
21419;DHT22;10870;51.384;10.316;2022-08-01T13:49:12;26.10;1.00
21419;DHT22;10870;51.384;10.316;2022-08-01T13:51:30;26.20;1.00
21419;DHT22;10870;51.384;10.316;2022-08-01T13:58:21;26.30;1.00
21419;DHT22;10870;51.384;10.316;2022-08-01T14:01:02;25.70;1.00
21419;DHT22;10870;51.384;10.316;2022-08-01T14:06:03;24.50;1.00
21419;DHT22;10870;51.384;10.316;2022-08-01T14:10:36;24.10;9.50
21419;DHT22;10870;51.384;10.316;2022-08-01T14:14:47;24.00;1.00
